createdAt,value
2019-05-09T00:00:23.223Z,99.90
2019-05-09T00:02:29.315Z,99.90
2019-05-09T00:04:30.679Z,99.90
2019-05-09T00:06:33.963Z,99.90
2019-05-09T00:08:35.339Z,99.90
2019-05-09T00:10:41.658Z,99.90
2019-05-09T00:12:40.037Z,99.90
2019-05-09T00:14:43.355Z,99.90
2019-05-09T00:16:44.664Z,99.90
2019-05-09T00:18:46.177Z,99.90
2019-05-09T00:20:55.480Z,99.90
2019-05-09T00:22:56.848Z,99.90
2019-05-09T00:24:58.256Z,99.90
2019-05-09T00:26:59.651Z,99.90
2019-05-09T00:29:03.810Z,99.90
2019-05-09T00:31:07.255Z,99.90
2019-05-09T00:33:08.659Z,99.90
2019-05-09T00:35:24.461Z,99.90
2019-05-09T00:37:44.368Z,99.90
2019-05-09T00:39:45.790Z,99.90
2019-05-09T00:41:47.157Z,99.90
2019-05-09T00:43:50.432Z,99.90
2019-05-09T00:46:04.233Z,99.90
2019-05-09T00:48:05.891Z,99.90
2019-05-09T00:50:07.289Z,99.90
2019-05-09T00:52:08.703Z,99.90
2019-05-09T00:54:10.327Z,99.90
2019-05-09T00:56:13.413Z,99.90
2019-05-09T00:58:15.013Z,99.90
2019-05-09T01:00:18.983Z,99.90
2019-05-09T01:02:20.398Z,99.90
2019-05-09T01:04:23.967Z,99.90
2019-05-09T01:06:25.057Z,99.90
2019-05-09T01:08:26.440Z,99.90
2019-05-09T01:10:27.805Z,99.90
2019-05-09T01:12:29.207Z,99.90
2019-05-09T01:14:30.578Z,99.90
2019-05-09T01:16:33.477Z,99.90
2019-05-09T01:18:35.162Z,99.90
2019-05-09T01:20:36.535Z,99.90
2019-05-09T01:22:37.916Z,99.90
2019-05-09T01:24:39.331Z,99.90
2019-05-09T01:26:40.704Z,99.90
2019-05-09T01:28:44.093Z,99.90
2019-05-09T01:30:45.387Z,99.90
2019-05-09T01:32:48.661Z,99.90
2019-05-09T01:34:50.044Z,99.90
2019-05-09T01:37:04.738Z,99.90
2019-05-09T01:39:06.129Z,99.90
2019-05-09T01:41:07.493Z,99.90
2019-05-09T01:43:08.903Z,99.90
2019-05-09T01:45:10.487Z,99.90
2019-05-09T01:47:13.716Z,99.90
2019-05-09T01:49:15.197Z,99.90
2019-05-09T01:51:16.615Z,99.90
2019-05-09T01:53:19.896Z,99.90
2019-05-09T01:55:23.573Z,99.90
2019-05-09T01:57:25.072Z,99.90
2019-05-09T01:59:26.467Z,99.90
2019-05-09T02:01:27.865Z,99.90
2019-05-09T02:03:29.247Z,99.90
2019-05-09T02:05:30.611Z,99.90
2019-05-09T02:07:33.221Z,99.90
2019-05-09T02:09:34.718Z,99.90
2019-05-09T02:11:42.429Z,99.90
2019-05-09T02:13:40.008Z,99.90
2019-05-09T02:15:49.236Z,99.90
2019-05-09T02:17:58.921Z,99.90
2019-05-09T02:19:55.850Z,99.90
2019-05-09T02:21:57.232Z,99.90
2019-05-09T02:23:58.639Z,99.90
2019-05-09T02:25:59.999Z,99.90
2019-05-09T02:28:03.364Z,99.90
2019-05-09T02:30:06.339Z,99.90
2019-05-09T02:32:07.780Z,99.90
2019-05-09T02:34:09.156Z,99.90
2019-05-09T02:36:10.578Z,99.90
2019-05-09T02:38:11.959Z,99.90
2019-05-09T02:40:13.512Z,99.90
2019-05-09T02:42:14.913Z,99.90
2019-05-09T02:44:19.324Z,99.90
2019-05-09T02:46:21.488Z,99.90
2019-05-09T02:48:22.990Z,99.90
2019-05-09T02:50:24.434Z,99.90
2019-05-09T02:52:28.436Z,99.90
2019-05-09T02:54:29.910Z,99.90
2019-05-09T02:56:31.629Z,99.90
2019-05-09T02:58:34.889Z,99.90
2019-05-09T03:00:39.641Z,99.90
2019-05-09T03:02:52.150Z,99.90
2019-05-09T03:04:53.784Z,99.90
2019-05-09T03:06:55.287Z,99.90
2019-05-09T03:08:59.369Z,99.90
2019-05-09T03:11:00.122Z,99.90
2019-05-09T03:13:01.528Z,99.90
2019-05-09T03:15:05.198Z,99.90
2019-05-09T03:17:08.931Z,99.90
2019-05-09T03:19:09.902Z,99.90
2019-05-09T03:21:18.915Z,99.90
2019-05-09T03:23:19.480Z,99.90
2019-05-09T03:25:21.091Z,99.90
2019-05-09T03:27:30.049Z,99.90
2019-05-09T03:29:33.329Z,99.90
2019-05-09T03:31:39.361Z,99.90
2019-05-09T03:33:40.871Z,99.90
2019-05-09T03:35:42.627Z,99.90
2019-05-09T03:37:48.018Z,99.90
2019-05-09T03:39:49.303Z,99.90
2019-05-09T03:41:50.665Z,99.90
2019-05-09T03:43:52.086Z,99.90
2019-05-09T03:46:07.884Z,99.90
2019-05-09T03:48:14.425Z,99.90
2019-05-09T03:50:17.693Z,99.90
2019-05-09T03:52:19.326Z,99.90
2019-05-09T03:54:20.721Z,99.90
2019-05-09T03:56:29.715Z,99.90
2019-05-09T03:58:31.108Z,99.90
2019-05-09T04:00:32.573Z,99.90
2019-05-09T04:02:33.934Z,99.90
2019-05-09T04:04:35.363Z,99.90
2019-05-09T04:06:39.070Z,99.90
2019-05-09T04:08:40.010Z,99.90
2019-05-09T04:10:41.420Z,99.90
2019-05-09T04:12:53.877Z,99.90
2019-05-09T04:14:48.023Z,99.90
2019-05-09T04:16:49.411Z,99.90
2019-05-09T04:18:50.767Z,99.90
2019-05-09T04:20:52.130Z,99.90
2019-05-09T04:22:53.600Z,99.90
2019-05-09T04:24:54.965Z,99.90
2019-05-09T04:26:58.223Z,99.90
2019-05-09T04:28:59.636Z,99.90
2019-05-09T04:31:00.987Z,99.90
2019-05-09T04:33:02.352Z,99.90
2019-05-09T04:35:04.300Z,99.90
2019-05-09T04:37:07.862Z,99.90
2019-05-09T04:39:12.609Z,99.90
2019-05-09T04:41:18.387Z,99.90
2019-05-09T04:43:26.684Z,99.90
2019-05-09T04:45:23.090Z,99.90
2019-05-09T04:47:24.530Z,99.90
2019-05-09T04:49:29.669Z,99.90
2019-05-09T04:51:29.521Z,99.90
2019-05-09T04:53:31.836Z,99.90
2019-05-09T04:55:35.103Z,99.90
2019-05-09T04:57:38.255Z,99.90
2019-05-09T04:59:39.830Z,99.90
2019-05-09T05:01:47.735Z,99.90
2019-05-09T05:03:50.798Z,99.90
2019-05-09T05:05:52.160Z,99.90
2019-05-09T05:07:53.605Z,99.90
2019-05-09T05:09:55.034Z,99.90
2019-05-09T05:11:57.917Z,99.90
2019-05-09T05:13:59.695Z,99.90
2019-05-09T05:16:01.123Z,99.90
2019-05-09T05:18:02.497Z,99.90
2019-05-09T05:20:08.384Z,99.90
2019-05-09T05:22:21.049Z,99.90
2019-05-09T05:24:27.833Z,99.90
2019-05-09T05:26:29.308Z,99.90
2019-05-09T05:28:30.699Z,99.90
2019-05-09T05:30:32.105Z,99.90
2019-05-09T05:32:41.291Z,99.90
2019-05-09T05:35:01.455Z,99.90
2019-05-09T05:37:02.822Z,99.90
2019-05-09T05:39:07.578Z,99.90
2019-05-09T05:41:08.986Z,99.90
2019-05-09T05:43:10.352Z,99.90
2019-05-09T05:45:12.057Z,99.90
2019-05-09T05:47:26.569Z,99.90
2019-05-09T05:49:28.061Z,99.90
2019-05-09T05:51:31.463Z,99.90
2019-05-09T05:53:33.092Z,99.90
2019-05-09T05:55:34.486Z,99.90
2019-05-09T05:57:38.360Z,99.90
2019-05-09T05:59:41.077Z,99.90
2019-05-09T06:01:42.762Z,99.90
2019-05-09T06:03:44.172Z,99.90
2019-05-09T06:05:49.345Z,99.90
2019-05-09T06:07:48.891Z,99.90
2019-05-09T06:09:50.255Z,99.90
2019-05-09T06:11:51.688Z,99.90
2019-05-09T06:13:57.543Z,99.90
2019-05-09T06:15:58.462Z,99.90
2019-05-09T06:17:59.664Z,99.90
2019-05-09T06:20:01.132Z,99.90
2019-05-09T06:22:02.506Z,99.90
2019-05-09T06:24:03.921Z,99.90
2019-05-09T06:26:09.369Z,99.90
2019-05-09T06:28:08.638Z,99.90
2019-05-09T06:30:14.050Z,99.90
2019-05-09T06:32:15.580Z,99.90
2019-05-09T06:34:18.702Z,99.90
2019-05-09T06:36:20.272Z,99.90
2019-05-09T06:38:21.704Z,99.90
2019-05-09T06:40:23.759Z,99.90
2019-05-09T06:42:25.537Z,99.90
2019-05-09T06:44:47.899Z,99.90
2019-05-09T06:46:51.232Z,99.90
2019-05-09T06:48:53.053Z,99.90
2019-05-09T06:50:54.474Z,99.90
2019-05-09T06:52:57.316Z,99.90
2019-05-09T06:54:58.992Z,99.90
2019-05-09T06:57:00.408Z,99.90
2019-05-09T06:59:01.835Z,99.90
2019-05-09T07:01:20.082Z,99.90
2019-05-09T07:03:32.219Z,99.90
2019-05-09T07:05:53.855Z,99.90
2019-05-09T07:07:57.624Z,99.90
2019-05-09T07:10:01.059Z,99.90
2019-05-09T07:12:02.422Z,99.90
2019-05-09T07:14:03.816Z,99.90
2019-05-09T07:16:05.201Z,99.90
2019-05-09T07:18:08.165Z,99.90
2019-05-09T07:20:09.680Z,99.90
2019-05-09T07:22:18.194Z,99.90
2019-05-09T07:24:19.999Z,99.90
2019-05-09T07:26:29.468Z,99.90
2019-05-09T07:28:30.877Z,99.90
2019-05-09T07:30:34.132Z,99.90
2019-05-09T07:32:43.246Z,99.90
2019-05-09T07:34:49.455Z,99.90
2019-05-09T07:36:50.824Z,99.90
2019-05-09T07:38:52.248Z,99.90
2019-05-09T07:40:53.883Z,99.90
2019-05-09T07:42:55.268Z,99.90
2019-05-09T07:44:59.068Z,99.90
2019-05-09T07:47:01.458Z,99.90
2019-05-09T07:49:02.920Z,99.90
2019-05-09T07:51:04.398Z,99.90
2019-05-09T07:53:08.583Z,99.90
2019-05-09T07:55:09.192Z,99.90
2019-05-09T07:57:10.555Z,99.90
2019-05-09T07:59:11.972Z,99.90
2019-05-09T08:01:13.587Z,99.90
2019-05-09T08:03:14.961Z,99.90
2019-05-09T08:05:27.983Z,99.90
2019-05-09T08:07:29.705Z,99.90
2019-05-09T08:09:31.055Z,99.90
2019-05-09T08:11:32.446Z,99.90
2019-05-09T08:13:33.838Z,99.90
2019-05-09T08:15:35.215Z,99.90
2019-05-09T08:17:38.181Z,99.90
2019-05-09T08:19:39.794Z,99.90
2019-05-09T08:21:41.156Z,99.90
2019-05-09T08:23:42.619Z,99.90
2019-05-09T08:25:44.015Z,99.90
2019-05-09T08:27:45.408Z,99.90
2019-05-09T08:29:47.842Z,99.90
2019-05-09T08:31:49.487Z,99.90
2019-05-09T08:33:50.900Z,99.90
2019-05-09T08:35:52.876Z,99.90
2019-05-09T08:37:54.343Z,99.90
2019-05-09T08:39:57.734Z,99.90
2019-05-09T08:41:59.468Z,99.90
2019-05-09T08:44:00.958Z,99.90
2019-05-09T08:46:02.453Z,99.90
2019-05-09T08:48:03.882Z,99.90
2019-05-09T08:50:17.646Z,99.90
2019-05-09T08:52:20.040Z,99.90
2019-05-09T08:54:40.428Z,99.90
2019-05-09T08:56:41.774Z,99.90
2019-05-09T08:58:43.163Z,99.90
2019-05-09T09:00:44.573Z,99.90
2019-05-09T09:02:48.018Z,99.90
2019-05-09T09:04:49.265Z,99.90
2019-05-09T09:06:50.628Z,99.90
2019-05-09T09:08:52.051Z,99.90
2019-05-09T09:10:53.385Z,99.90
2019-05-09T09:12:54.785Z,99.90
2019-05-09T09:14:58.434Z,99.90
2019-05-09T09:16:59.449Z,99.90
2019-05-09T09:19:00.878Z,99.90
2019-05-09T09:21:02.572Z,99.90
2019-05-09T09:23:03.947Z,99.90
2019-05-09T09:25:07.480Z,99.90
2019-05-09T09:27:08.807Z,99.90
2019-05-09T09:29:10.217Z,99.90
2019-05-09T09:31:11.585Z,99.90
2019-05-09T09:33:13.995Z,99.90
2019-05-09T09:35:15.475Z,99.90
2019-05-09T09:37:18.561Z,99.90
2019-05-09T09:39:20.136Z,99.90
2019-05-09T09:41:21.500Z,99.90
2019-05-09T09:43:22.855Z,99.90
2019-05-09T09:45:24.251Z,99.90
2019-05-09T09:47:25.638Z,99.90
2019-05-09T09:49:29.335Z,99.90
2019-05-09T09:51:30.714Z,99.90
2019-05-09T09:53:32.314Z,99.90
2019-05-09T09:55:33.684Z,99.90
2019-05-09T09:57:35.047Z,99.90
2019-05-09T09:59:53.598Z,99.90
2019-05-09T10:01:58.399Z,99.90
2019-05-09T10:04:16.571Z,99.90
2019-05-09T10:06:11.035Z,99.90
2019-05-09T10:08:14.135Z,99.90
2019-05-09T10:10:36.847Z,99.90
2019-05-09T10:12:44.288Z,99.90
2019-05-09T10:14:46.144Z,99.90
2019-05-09T10:16:49.475Z,99.90
2019-05-09T10:18:52.733Z,99.90
2019-05-09T10:20:58.738Z,99.90
2019-05-09T10:23:11.116Z,99.90
2019-05-09T10:25:03.999Z,99.90
2019-05-09T10:27:09.906Z,99.90
2019-05-09T10:29:11.411Z,99.90
2019-05-09T10:31:12.874Z,99.90
2019-05-09T10:33:14.340Z,99.90
2019-05-09T10:35:21.538Z,99.90
2019-05-09T10:37:22.897Z,99.90
2019-05-09T10:39:24.464Z,99.90
2019-05-09T10:41:25.888Z,99.90
2019-05-09T10:43:44.402Z,99.90
2019-05-09T10:46:04.252Z,99.90
2019-05-09T10:48:05.638Z,99.90
2019-05-09T10:50:08.517Z,99.90
2019-05-09T10:52:10.146Z,99.90
2019-05-09T10:54:12.593Z,99.90
2019-05-09T10:56:13.991Z,99.90
2019-05-09T10:58:15.372Z,99.90
2019-05-09T11:00:19.042Z,99.90
2019-05-09T11:02:20.442Z,99.90
2019-05-09T11:04:21.822Z,99.90
2019-05-09T11:06:23.177Z,99.90
2019-05-09T11:08:24.568Z,99.90
2019-05-09T11:10:30.114Z,99.90
2019-05-09T11:12:29.339Z,99.90
2019-05-09T11:14:36.777Z,99.90
2019-05-09T11:16:45.528Z,99.90
2019-05-09T11:18:37.307Z,99.90
2019-05-09T11:20:38.701Z,99.90
2019-05-09T11:22:40.161Z,99.90
2019-05-09T11:24:46.407Z,99.90
2019-05-09T11:26:47.954Z,99.90
2019-05-09T11:28:48.701Z,99.90
2019-05-09T11:30:50.099Z,99.90
2019-05-09T11:32:51.515Z,99.90
2019-05-09T11:34:53.094Z,99.90
2019-05-09T11:36:54.510Z,99.90
2019-05-09T11:38:59.859Z,99.90
2019-05-09T11:40:59.151Z,99.80
2019-05-09T11:43:00.551Z,93.90
2019-05-09T11:45:03.911Z,97.50
2019-05-09T11:47:05.327Z,96.70
2019-05-09T11:49:08.276Z,95.30
2019-05-09T11:51:10.019Z,95.10
2019-05-09T11:53:11.433Z,97.00
2019-05-09T11:55:28.627Z,93.20
2019-05-09T11:57:18.938Z,92.90
2019-05-09T11:59:19.789Z,95.30
2019-05-09T12:01:21.176Z,91.60
2019-05-09T12:03:22.543Z,93.90
2019-05-09T12:05:23.965Z,94.60
2019-05-09T12:07:25.329Z,94.50
2019-05-09T12:09:28.829Z,96.50
2019-05-09T12:11:30.039Z,92.70
2019-05-09T12:13:31.394Z,95.70
2019-05-09T12:15:32.894Z,93.80
2019-05-09T12:17:49.772Z,90.60
2019-05-09T12:19:38.169Z,91.60
2019-05-09T12:21:47.541Z,91.30
2019-05-09T12:23:43.035Z,88.50
2019-05-09T12:25:44.411Z,90.40
2019-05-09T12:27:48.520Z,86.60
2019-05-09T12:29:49.095Z,90.30
2019-05-09T12:31:50.454Z,86.90
2019-05-09T12:33:51.858Z,87.80
2019-05-09T12:35:53.270Z,89.30
2019-05-09T12:37:54.644Z,89.10
2019-05-09T12:39:58.385Z,91.60
2019-05-09T12:41:59.328Z,86.50
2019-05-09T12:44:00.819Z,89.60
2019-05-09T12:46:02.287Z,87.20
2019-05-09T12:48:10.225Z,89.20
2019-05-09T12:50:08.675Z,90.30
2019-05-09T12:52:10.270Z,90.30
2019-05-09T12:54:11.649Z,85.80
2019-05-09T12:56:13.041Z,87.50
2019-05-09T12:58:27.671Z,84.70
2019-05-09T13:00:29.546Z,85.90
2019-05-09T13:02:30.941Z,87.40
2019-05-09T13:04:32.338Z,85.90
2019-05-09T13:06:33.761Z,84.80
2019-05-09T13:08:35.150Z,82.20
2019-05-09T13:10:37.864Z,82.00
2019-05-09T13:12:39.451Z,86.00
2019-05-09T13:14:40.818Z,89.70
2019-05-09T13:16:49.736Z,87.70
2019-05-09T13:19:07.463Z,86.30
2019-05-09T13:21:08.849Z,84.60
2019-05-09T13:23:10.252Z,84.80
2019-05-09T13:25:11.636Z,85.20
2019-05-09T13:27:13.012Z,84.60
2019-05-09T13:29:14.393Z,83.00
2019-05-09T13:31:18.178Z,86.30
2019-05-09T13:33:19.162Z,87.30
2019-05-09T13:35:20.565Z,84.60
2019-05-09T13:37:21.975Z,90.30
2019-05-09T13:39:23.399Z,90.50
2019-05-09T13:41:24.761Z,89.10
2019-05-09T13:43:28.082Z,88.10
2019-05-09T13:45:29.429Z,87.20
2019-05-09T13:47:30.793Z,84.50
2019-05-09T13:49:32.167Z,83.30
2019-05-09T13:51:33.741Z,89.30
2019-05-09T13:53:35.167Z,86.70
2019-05-09T13:55:38.062Z,82.60
2019-05-09T13:57:39.805Z,83.80
2019-05-09T13:59:41.242Z,84.10
2019-05-09T14:01:42.612Z,80.40
2019-05-09T14:03:44.031Z,82.60
2019-05-09T14:05:47.931Z,83.30
2019-05-09T14:07:51.218Z,81.00
2019-05-09T14:09:52.001Z,79.60
2019-05-09T14:11:53.365Z,82.00
2019-05-09T14:13:54.789Z,84.60
2019-05-09T14:15:57.599Z,80.80
2019-05-09T14:17:59.267Z,82.40
2019-05-09T14:20:00.697Z,83.80
2019-05-09T14:22:02.413Z,82.60
2019-05-09T14:24:14.066Z,81.20
2019-05-09T14:26:09.371Z,82.50
2019-05-09T14:28:10.889Z,78.20
2019-05-09T14:30:12.435Z,79.90
2019-05-09T14:32:13.839Z,75.70
2019-05-09T14:34:15.190Z,75.70
2019-05-09T14:36:16.578Z,76.20
2019-05-09T14:38:18.542Z,76.60
2019-05-09T14:40:20.135Z,78.30
2019-05-09T14:42:21.535Z,82.30
2019-05-09T14:44:22.921Z,84.70
2019-05-09T14:46:24.285Z,80.50
2019-05-09T14:48:25.694Z,84.30
2019-05-09T14:50:28.519Z,77.90
2019-05-09T14:52:30.045Z,75.90
2019-05-09T14:54:31.461Z,76.20
2019-05-09T14:56:32.835Z,75.90
2019-05-09T14:58:34.241Z,75.10
2019-05-09T15:00:38.501Z,77.10
2019-05-09T15:02:39.139Z,76.50
2019-05-09T15:04:40.499Z,76.30
2019-05-09T15:06:41.927Z,77.70
2019-05-09T15:08:43.288Z,74.30
2019-05-09T15:10:44.689Z,76.10
2019-05-09T15:12:48.071Z,73.60
2019-05-09T15:14:49.355Z,74.70
2019-05-09T15:16:50.730Z,74.20
2019-05-09T15:18:52.237Z,73.70
2019-05-09T15:20:53.713Z,75.40
2019-05-09T15:22:55.123Z,73.10
2019-05-09T15:24:58.909Z,72.40
2019-05-09T15:26:59.804Z,73.10
2019-05-09T15:29:01.168Z,75.10
2019-05-09T15:31:02.601Z,77.40
2019-05-09T15:33:03.962Z,76.90
2019-05-09T15:35:08.684Z,75.20
2019-05-09T15:37:09.149Z,76.20
2019-05-09T15:39:10.513Z,79.70
2019-05-09T15:41:12.357Z,77.50
2019-05-09T15:43:13.883Z,78.80
2019-05-09T15:45:18.258Z,77.50
2019-05-09T15:47:24.124Z,76.70
2019-05-09T15:49:28.354Z,77.00
2019-05-09T15:51:32.029Z,77.20
2019-05-09T15:53:32.651Z,79.60
2019-05-09T15:55:34.184Z,79.70
2019-05-09T15:57:37.682Z,78.20
2019-05-09T15:59:39.136Z,78.80
2019-05-09T16:01:40.606Z,81.10
2019-05-09T16:03:42.139Z,80.70
2019-05-09T16:05:43.513Z,82.10
2019-05-09T16:07:44.943Z,80.20
2019-05-09T16:09:48.323Z,81.70
2019-05-09T16:11:49.598Z,83.60
2019-05-09T16:13:50.962Z,83.70
2019-05-09T16:15:52.346Z,85.80
2019-05-09T16:17:53.795Z,86.60
2019-05-09T16:19:57.174Z,82.10
2019-05-09T16:21:58.421Z,82.40
2019-05-09T16:23:59.817Z,83.40
2019-05-09T16:26:01.190Z,81.20
2019-05-09T16:28:02.938Z,80.40
2019-05-09T16:30:08.420Z,79.80
2019-05-09T16:32:10.534Z,77.90
2019-05-09T16:34:11.919Z,79.10
2019-05-09T16:36:13.461Z,77.90
2019-05-09T16:38:14.853Z,79.70
2019-05-09T16:40:16.242Z,82.20
2019-05-09T16:42:17.671Z,83.50
2019-05-09T16:44:19.036Z,82.50
2019-05-09T16:46:20.412Z,84.00
2019-05-09T16:48:21.807Z,84.10
2019-05-09T16:50:23.211Z,84.20
2019-05-09T16:52:24.638Z,84.90
2019-05-09T16:54:28.359Z,82.50
2019-05-09T16:56:29.855Z,83.10
2019-05-09T16:58:31.262Z,80.40
2019-05-09T17:00:48.277Z,79.10
2019-05-09T17:02:49.712Z,77.00
2019-05-09T17:04:51.123Z,77.80
2019-05-09T17:06:52.517Z,78.20
2019-05-09T17:08:53.962Z,78.10
2019-05-09T17:10:55.363Z,80.10
2019-05-09T17:12:58.234Z,81.40
2019-05-09T17:14:59.935Z,81.20
2019-05-09T17:17:01.314Z,82.30
2019-05-09T17:19:03.304Z,83.30
2019-05-09T17:21:24.171Z,83.20
2019-05-09T17:23:24.214Z,82.30
2019-05-09T17:25:28.012Z,82.10
2019-05-09T17:27:28.885Z,82.50
2019-05-09T17:29:30.285Z,83.50
2019-05-09T17:31:31.747Z,84.40
2019-05-09T17:33:33.104Z,85.70
2019-05-09T17:35:34.596Z,87.30
2019-05-09T17:37:38.023Z,89.20
2019-05-09T17:39:39.287Z,88.90
2019-05-09T17:41:40.708Z,90.30
2019-05-09T17:43:42.109Z,90.40
2019-05-09T17:45:43.869Z,90.00
2019-05-09T17:47:45.244Z,90.30
2019-05-09T17:49:48.219Z,89.30
2019-05-09T17:51:49.843Z,91.10
2019-05-09T17:53:52.172Z,91.20
2019-05-09T17:55:53.820Z,90.70
2019-05-09T17:57:55.341Z,90.70
2019-05-09T17:59:58.353Z,90.50
2019-05-09T18:01:59.979Z,91.40
2019-05-09T18:04:01.449Z,91.60
2019-05-09T18:06:03.815Z,91.50
2019-05-09T18:08:05.305Z,92.70
2019-05-09T18:10:07.708Z,93.20
2019-05-09T18:12:09.346Z,93.50
2019-05-09T18:14:10.730Z,93.50
2019-05-09T18:16:12.124Z,93.10
2019-05-09T18:18:13.502Z,94.20
2019-05-09T18:20:17.644Z,94.10
2019-05-09T18:22:19.363Z,94.70
2019-05-09T18:24:20.852Z,94.50
2019-05-09T18:26:22.295Z,94.40
2019-05-09T18:28:23.653Z,94.70
2019-05-09T18:30:27.362Z,95.40
2019-05-09T18:32:42.360Z,95.50
2019-05-09T18:34:43.886Z,95.80
2019-05-09T18:36:45.353Z,96.40
2019-05-09T18:38:48.038Z,96.20
2019-05-09T18:40:49.669Z,96.70
2019-05-09T18:42:51.154Z,97.70
2019-05-09T18:44:52.542Z,96.50
2019-05-09T18:46:54.771Z,96.70
2019-05-09T18:48:56.201Z,97.60
2019-05-09T18:50:57.553Z,97.90
2019-05-09T18:52:58.933Z,98.80
2019-05-09T18:55:00.357Z,99.80
2019-05-09T18:57:01.739Z,99.90
2019-05-09T18:59:03.191Z,99.90
2019-05-09T19:01:04.649Z,99.90
2019-05-09T19:03:06.014Z,99.90
2019-05-09T19:05:07.802Z,99.90
2019-05-09T19:07:21.845Z,99.90
2019-05-09T19:09:12.592Z,99.90
2019-05-09T19:11:14.012Z,99.90
2019-05-09T19:13:15.379Z,99.90
2019-05-09T19:15:22.857Z,99.90
2019-05-09T19:17:42.849Z,99.90
2019-05-09T19:19:46.122Z,99.90
2019-05-09T19:21:49.424Z,99.90
2019-05-09T19:23:50.827Z,99.90
2019-05-09T19:25:52.197Z,99.90
2019-05-09T19:27:53.615Z,99.90
2019-05-09T19:29:55.008Z,99.90
2019-05-09T19:31:56.367Z,99.90
2019-05-09T19:33:57.799Z,99.90
2019-05-09T19:35:59.165Z,99.90
2019-05-09T19:38:00.731Z,99.90
2019-05-09T19:40:05.142Z,99.90
2019-05-09T19:42:06.538Z,99.90
2019-05-09T19:44:08.029Z,99.90
2019-05-09T19:46:09.423Z,99.90
2019-05-09T19:48:10.845Z,99.90
2019-05-09T19:50:13.922Z,99.90
2019-05-09T19:52:15.489Z,99.90
2019-05-09T19:54:16.839Z,99.90
2019-05-09T19:56:18.287Z,99.90
2019-05-09T19:58:19.656Z,99.90
2019-05-09T20:00:21.331Z,99.90
2019-05-09T20:02:22.722Z,99.90
2019-05-09T20:04:24.096Z,99.90
2019-05-09T20:06:25.479Z,99.90
2019-05-09T20:08:26.880Z,99.90
2019-05-09T20:10:47.045Z,99.90
2019-05-09T20:13:02.215Z,99.90
2019-05-09T20:15:05.418Z,99.90
2019-05-09T20:17:06.795Z,99.90
2019-05-09T20:19:08.151Z,99.90
2019-05-09T20:21:09.594Z,99.90
2019-05-09T20:23:10.950Z,99.90
2019-05-09T20:25:13.313Z,99.90
2019-05-09T20:27:14.699Z,99.90
2019-05-09T20:29:16.086Z,99.90
2019-05-09T20:31:17.491Z,99.90
2019-05-09T20:33:18.857Z,99.90
2019-05-09T20:35:20.270Z,99.90
2019-05-09T20:37:21.703Z,99.90
2019-05-09T20:39:23.249Z,99.90
2019-05-09T20:41:24.609Z,99.90
2019-05-09T20:43:26.018Z,99.90
2019-05-09T20:45:27.471Z,99.90
2019-05-09T20:47:28.868Z,99.90
2019-05-09T20:49:30.268Z,99.90
2019-05-09T20:51:31.672Z,99.90
2019-05-09T20:53:33.183Z,99.90
2019-05-09T20:55:34.651Z,99.90
2019-05-09T20:57:36.020Z,99.90
2019-05-09T20:59:37.428Z,99.90
2019-05-09T21:01:38.822Z,99.90
2019-05-09T21:03:40.194Z,99.90
2019-05-09T21:05:41.589Z,99.90
2019-05-09T21:07:42.997Z,99.90
2019-05-09T21:09:44.378Z,99.90
2019-05-09T21:11:45.747Z,99.90
2019-05-09T21:13:48.759Z,99.90
2019-05-09T21:15:50.423Z,99.90
2019-05-09T21:17:51.857Z,99.90
2019-05-09T21:19:53.241Z,99.90
2019-05-09T21:21:54.793Z,99.90
2019-05-09T21:23:56.198Z,99.90
2019-05-09T21:25:57.561Z,99.90
2019-05-09T21:27:58.987Z,99.90
2019-05-09T21:30:00.477Z,99.90
2019-05-09T21:32:01.851Z,99.90
2019-05-09T21:34:03.247Z,99.90
2019-05-09T21:36:04.611Z,99.90
2019-05-09T21:38:06.028Z,99.90
2019-05-09T21:40:08.390Z,99.90
2019-05-09T21:42:09.891Z,99.90
2019-05-09T21:44:11.238Z,99.90
2019-05-09T21:46:12.602Z,99.90
2019-05-09T21:48:14.004Z,99.90
2019-05-09T21:50:15.805Z,99.90
2019-05-09T21:52:17.215Z,99.90
2019-05-09T21:54:18.592Z,99.90
2019-05-09T21:56:20.068Z,99.90
2019-05-09T21:58:21.473Z,99.90
2019-05-09T22:00:34.914Z,99.90
2019-05-09T22:02:36.549Z,99.90
2019-05-09T22:04:37.956Z,99.90
2019-05-09T22:06:39.419Z,99.90
2019-05-09T22:08:40.826Z,99.90
2019-05-09T22:10:42.199Z,99.90
2019-05-09T22:12:43.865Z,99.90
2019-05-09T22:14:45.368Z,99.90
2019-05-09T22:16:48.369Z,99.90
2019-05-09T22:18:49.734Z,99.90
2019-05-09T22:20:51.145Z,99.90
2019-05-09T22:22:52.531Z,99.90
2019-05-09T22:24:53.897Z,99.90
2019-05-09T22:26:55.404Z,99.90
2019-05-09T22:28:56.824Z,99.90
2019-05-09T22:30:58.188Z,99.90
2019-05-09T22:32:59.568Z,99.90
2019-05-09T22:35:01.692Z,99.90
2019-05-09T22:37:03.042Z,99.90
2019-05-09T22:39:06.204Z,99.90
2019-05-09T22:41:07.612Z,99.90
2019-05-09T22:43:09.111Z,99.90
2019-05-09T22:45:11.273Z,99.90
2019-05-09T22:47:12.698Z,99.90
2019-05-09T22:49:14.074Z,99.90
2019-05-09T22:51:15.452Z,99.90
2019-05-09T22:53:16.856Z,99.90
2019-05-09T22:55:18.209Z,99.90
2019-05-09T22:57:19.587Z,99.90
2019-05-09T22:59:20.983Z,99.90
2019-05-09T23:01:22.440Z,99.90
2019-05-09T23:03:23.800Z,99.90
2019-05-09T23:05:25.488Z,99.90
2019-05-09T23:07:26.861Z,99.90
2019-05-09T23:09:28.219Z,99.90
2019-05-09T23:11:29.619Z,99.90
2019-05-09T23:13:32.901Z,99.90
2019-05-09T23:15:34.309Z,99.90
2019-05-09T23:17:35.898Z,99.90
2019-05-09T23:19:37.256Z,99.90
2019-05-09T23:21:38.617Z,99.90
2019-05-09T23:23:41.227Z,99.90
2019-05-09T23:25:42.601Z,99.90
2019-05-09T23:27:43.952Z,99.90
2019-05-09T23:29:45.365Z,99.90
2019-05-09T23:32:05.206Z,99.90
2019-05-09T23:34:06.666Z,99.90
2019-05-09T23:36:08.066Z,99.90
2019-05-09T23:38:09.431Z,99.90
2019-05-09T23:40:11.025Z,99.90
2019-05-09T23:42:12.530Z,99.90
2019-05-09T23:44:14.242Z,99.90
2019-05-09T23:46:15.677Z,99.90
2019-05-09T23:48:17.054Z,99.90
2019-05-09T23:50:18.457Z,99.90
2019-05-09T23:52:19.815Z,99.90
2019-05-09T23:54:48.211Z,99.90
2019-05-09T23:57:01.927Z,99.90
2019-05-09T23:59:21.692Z,99.90
